Time;durP1;ratioP1;P1;durP2;ratioP2;P2;SDS_P1;SDS_P2;PMS_P1;PMS_P2;Temp;Humidity;BMP_temperature;BMP_pressure;BME280_temperature;BME280_humidity;BME280_pressure;Samples;Min_cycle;Max_cycle;Signal;HPM_P1;HPM_P2
2022/02/14 00:02:16;;;;;;;0.60;0.60;;;1.90;99.90;;;;;;4997564;28;20199;-80
2022/02/14 00:04:43;;;;;;;0.65;0.65;;;1.80;99.90;;;;;;5029625;28;20230;-79
2022/02/14 00:07:09;;;;;;;0.70;0.70;;;1.80;99.90;;;;;;5028369;28;20214;-79
2022/02/14 00:09:35;;;;;;;0.70;0.70;;;1.70;99.90;;;;;;5027615;28;20490;-79
2022/02/14 00:12:01;;;;;;;0.63;0.63;;;1.70;99.90;;;;;;5012787;28;20205;-81
2022/02/14 00:14:29;;;;;;;0.52;0.52;;;1.70;99.90;;;;;;5022843;28;20249;-79
2022/02/14 00:16:55;;;;;;;0.77;0.77;;;1.60;99.90;;;;;;5014694;28;20203;-79
2022/02/14 00:19:26;;;;;;;1.25;1.15;;;1.60;99.90;;;;;;5012121;28;20208;-80
2022/02/14 00:21:52;;;;;;;0.88;0.88;;;1.60;99.90;;;;;;4998923;28;20203;-80
2022/02/14 00:24:21;;;;;;;0.68;0.68;;;1.60;99.90;;;;;;5024932;28;20709;-79
2022/02/14 00:26:47;;;;;;;0.57;0.57;;;1.50;99.90;;;;;;5030158;28;20671;-79
2022/02/14 00:29:18;;;;;;;0.55;0.55;;;1.50;99.90;;;;;;5028753;28;20210;-79
2022/02/14 00:31:46;;;;;;;0.52;0.52;;;1.50;99.90;;;;;;5012160;28;20206;-80
2022/02/14 00:34:12;;;;;;;0.60;0.60;;;1.40;99.90;;;;;;5012268;28;20217;-79
2022/02/14 00:36:39;;;;;;;0.57;0.57;;;1.50;99.90;;;;;;5012684;28;20832;-79
2022/02/14 00:39:14;;;;;;;0.52;0.52;;;1.50;99.90;;;;;;5013802;28;20199;-80
2022/02/14 00:41:39;;;;;;;0.65;0.65;;;1.50;99.90;;;;;;5011245;28;20210;-80
2022/02/14 00:44:07;;;;;;;0.50;0.50;;;1.40;99.90;;;;;;5011755;28;20613;-79
2022/02/14 00:46:33;;;;;;;0.50;0.50;;;1.40;99.90;;;;;;5011347;28;20206;-80
2022/02/14 00:48:59;;;;;;;0.60;0.60;;;1.40;99.90;;;;;;5011261;28;20679;-80
2022/02/14 00:51:25;;;;;;;0.60;0.60;;;1.40;99.90;;;;;;5002570;28;20250;-79
2022/02/14 00:53:50;;;;;;;0.68;0.68;;;1.40;99.90;;;;;;5022198;28;20214;-80
2022/02/14 00:56:16;;;;;;;0.70;0.70;;;1.40;99.90;;;;;;5011147;28;20203;-80
2022/02/14 00:58:44;;;;;;;0.65;0.65;;;1.40;99.90;;;;;;5011334;28;20202;-80
2022/02/14 01:01:10;;;;;;;0.50;0.50;;;1.40;99.90;;;;;;5012171;28;20199;-80
2022/02/14 01:03:39;;;;;;;0.82;0.82;;;1.40;99.90;;;;;;5010468;28;20203;-80
2022/02/14 01:06:05;;;;;;;0.70;0.70;;;1.40;99.90;;;;;;5010590;28;20198;-79
2022/02/14 01:08:31;;;;;;;0.70;0.70;;;1.40;99.90;;;;;;5010111;28;20199;-80
2022/02/14 01:10:56;;;;;;;0.65;0.65;;;1.50;99.90;;;;;;5011774;28;20202;-80
2022/02/14 01:13:22;;;;;;;0.90;0.90;;;1.40;99.90;;;;;;5012609;28;20295;-80
2022/02/14 01:15:48;;;;;;;0.60;0.60;;;1.40;99.90;;;;;;5011447;28;20695;-80
2022/02/14 01:18:19;;;;;;;0.65;0.65;;;1.50;99.90;;;;;;5012217;28;20202;-80
2022/02/14 01:20:45;;;;;;;0.70;0.70;;;1.50;99.90;;;;;;4992335;28;20211;-81
2022/02/14 01:23:11;;;;;;;0.75;0.75;;;1.40;99.90;;;;;;5012078;28;20195;-81
2022/02/14 01:25:36;;;;;;;0.65;0.65;;;1.50;99.90;;;;;;5026799;28;20241;-80
2022/02/14 01:28:02;;;;;;;2.35;1.23;;;1.50;99.90;;;;;;5011147;28;20229;-81
2022/02/14 01:30:28;;;;;;;0.68;0.68;;;1.50;99.90;;;;;;5012096;28;20210;-79
2022/02/14 01:32:54;;;;;;;0.63;0.63;;;1.50;99.90;;;;;;5011228;28;20571;-79
2022/02/14 01:35:19;;;;;;;0.98;0.98;;;1.50;99.90;;;;;;5009638;28;20629;-80
2022/02/14 01:37:45;;;;;;;0.50;0.50;;;1.50;99.90;;;;;;5010004;28;20241;-79
2022/02/14 01:40:12;;;;;;;0.80;0.80;;;1.50;99.90;;;;;;5009104;28;20203;-80
2022/02/14 01:42:38;;;;;;;0.70;0.70;;;1.50;99.90;;;;;;5011644;28;20702;-80
2022/02/14 01:45:04;;;;;;;0.80;0.80;;;1.50;99.90;;;;;;5011884;28;20190;-80
2022/02/14 01:47:31;;;;;;;0.77;0.77;;;1.40;99.90;;;;;;5009175;28;20219;-79
2022/02/14 01:49:58;;;;;;;0.63;0.63;;;1.40;99.90;;;;;;5010469;28;20262;-79
2022/02/14 01:52:25;;;;;;;3.17;1.17;;;1.50;99.90;;;;;;5012021;28;20559;-79
2022/02/14 01:54:51;;;;;;;0.60;0.60;;;1.50;99.90;;;;;;5010583;28;20269;-80
2022/02/14 01:57:18;;;;;;;0.70;0.70;;;1.50;99.90;;;;;;5008723;28;20689;-80
2022/02/14 01:59:44;;;;;;;0.70;0.70;;;1.50;99.90;;;;;;5008689;28;20263;-80
2022/02/14 02:02:11;;;;;;;0.60;0.60;;;1.40;99.90;;;;;;5012530;28;20728;-78
2022/02/14 02:04:37;;;;;;;6.07;2.58;;;1.50;99.90;;;;;;5009365;28;20581;-79
2022/02/14 02:07:04;;;;;;;0.70;0.70;;;1.50;99.90;;;;;;5018628;28;20210;-80
2022/02/14 02:09:30;;;;;;;0.70;0.70;;;1.50;99.90;;;;;;5008677;28;20234;-78
2022/02/14 02:14:41;;;;;;;0.80;0.80;;;1.50;99.90;;;;;;4995974;28;20729;-77
2022/02/14 02:17:07;;;;;;;0.70;0.70;;;1.50;99.90;;;;;;5010242;28;20237;-78
2022/02/14 02:19:34;;;;;;;0.75;0.75;;;1.50;99.90;;;;;;5011580;28;20195;-77
2022/02/14 02:22:00;;;;;;;0.70;0.70;;;1.50;99.90;;;;;;5010333;28;20257;-77
2022/02/14 02:24:26;;;;;;;0.70;0.70;;;1.40;99.90;;;;;;5010430;28;20281;-77
2022/02/14 02:27:04;;;;;;;0.75;0.75;;;1.40;99.90;;;;;;5010709;28;20222;-77
2022/02/14 02:29:37;;;;;;;0.70;0.70;;;1.40;99.90;;;;;;5009899;28;20666;-77
2022/02/14 02:32:05;;;;;;;0.90;0.90;;;1.40;99.90;;;;;;5012589;28;20245;-78
2022/02/14 02:34:31;;;;;;;2.95;1.73;;;1.40;99.90;;;;;;5012849;28;20206;-77
2022/02/14 02:36:59;;;;;;;0.80;0.80;;;1.40;99.90;;;;;;5011744;28;20281;-77
2022/02/14 02:39:26;;;;;;;0.98;0.98;;;1.30;99.90;;;;;;5013908;28;20198;-76
2022/02/14 02:41:52;;;;;;;0.70;0.70;;;1.30;99.90;;;;;;5013719;28;20600;-78
2022/02/14 02:44:19;;;;;;;0.60;0.60;;;1.30;99.90;;;;;;5012863;28;20213;-78
2022/02/14 02:46:45;;;;;;;0.80;0.80;;;1.30;99.90;;;;;;5015486;28;20662;-77
2022/02/14 02:49:18;;;;;;;1.00;0.93;;;1.20;99.90;;;;;;5005227;28;20231;-78
2022/02/14 02:51:47;;;;;;;0.70;0.70;;;1.20;99.90;;;;;;5024766;28;20205;-76
2022/02/14 02:54:14;;;;;;;0.73;0.73;;;1.20;99.90;;;;;;5031396;28;20306;-78
2022/02/14 02:56:42;;;;;;;0.70;0.70;;;1.20;99.90;;;;;;5030038;28;20202;-78
2022/02/14 02:59:08;;;;;;;0.82;0.82;;;1.20;99.90;;;;;;5029128;28;20610;-78
2022/02/14 03:01:35;;;;;;;0.65;0.65;;;1.10;99.90;;;;;;5027433;28;20233;-76
2022/02/14 03:04:03;;;;;;;0.75;0.75;;;1.10;99.90;;;;;;5029080;28;20206;-77
2022/02/14 03:06:29;;;;;;;0.77;0.77;;;1.10;99.90;;;;;;5030113;28;20238;-77
2022/02/14 03:08:55;;;;;;;0.70;0.70;;;1.10;99.90;;;;;;5014776;28;20203;-76
2022/02/14 03:11:21;;;;;;;0.80;0.80;;;1.10;99.90;;;;;;5012147;28;20300;-77
2022/02/14 03:13:48;;;;;;;0.65;0.65;;;1.10;99.90;;;;;;5013422;28;20570;-77
2022/02/14 03:16:15;;;;;;;0.90;0.90;;;1.00;99.90;;;;;;5011063;28;20195;-76
2022/02/14 03:18:41;;;;;;;0.70;0.70;;;0.90;99.90;;;;;;5013102;28;20567;-76
2022/02/14 03:21:07;;;;;;;0.60;0.60;;;0.90;99.90;;;;;;5014815;28;20203;-77
2022/02/14 03:23:33;;;;;;;1.90;1.40;;;0.80;99.90;;;;;;5014368;28;20572;-79
2022/02/14 03:25:59;;;;;;;1.52;1.23;;;0.70;99.90;;;;;;5014777;28;20269;-76
2022/02/14 03:28:25;;;;;;;0.82;0.82;;;0.70;99.90;;;;;;5014495;28;20199;-77
2022/02/14 03:30:51;;;;;;;1.10;1.10;;;0.70;99.90;;;;;;5015130;28;20211;-76
2022/02/14 03:33:16;;;;;;;0.70;0.70;;;0.70;99.90;;;;;;5013669;28;20206;-77
2022/02/14 03:35:42;;;;;;;0.90;0.90;;;0.70;99.90;;;;;;5013112;28;20222;-77
2022/02/14 03:38:08;;;;;;;0.80;0.80;;;0.60;99.90;;;;;;5012537;28;20261;-77
2022/02/14 03:40:35;;;;;;;1.67;1.58;;;0.50;99.90;;;;;;5012187;28;20204;-77
2022/02/14 03:43:03;;;;;;;0.80;0.80;;;0.50;99.90;;;;;;5011525;28;20203;-77
2022/02/14 03:45:30;;;;;;;0.90;0.90;;;0.50;99.90;;;;;;5014644;28;20203;-78
2022/02/14 03:47:56;;;;;;;1.85;1.15;;;0.50;99.90;;;;;;5011118;28;20696;-76
2022/02/14 03:50:22;;;;;;;0.68;0.68;;;0.50;99.90;;;;;;5010713;28;20211;-78
2022/02/14 03:52:48;;;;;;;0.80;0.80;;;0.50;99.90;;;;;;5013673;28;20206;-76
2022/02/14 03:55:14;;;;;;;2.28;0.90;;;0.50;99.90;;;;;;5013599;28;20228;-78
2022/02/14 03:57:39;;;;;;;2.75;1.90;;;0.50;99.90;;;;;;5013468;28;20203;-76
2022/02/14 04:00:08;;;;;;;0.80;0.80;;;0.50;99.90;;;;;;5013679;28;20253;-78
2022/02/14 04:02:35;;;;;;;0.98;0.98;;;0.50;99.90;;;;;;5011195;28;20202;-78
2022/02/14 04:05:02;;;;;;;0.70;0.70;;;0.50;99.90;;;;;;5013832;28;20203;-76
2022/02/14 04:07:28;;;;;;;0.52;0.52;;;0.50;99.90;;;;;;5014873;28;20210;-77
2022/02/14 04:09:54;;;;;;;0.70;0.70;;;0.40;99.90;;;;;;5012000;28;20620;-78
2022/02/14 04:12:20;;;;;;;1.00;1.00;;;0.50;99.90;;;;;;4996957;28;20219;-77
2022/02/14 04:14:46;;;;;;;0.75;0.75;;;0.50;99.90;;;;;;5012804;28;20202;-78
2022/02/14 04:17:11;;;;;;;1.58;1.48;;;0.40;99.90;;;;;;5012491;28;20554;-77
2022/02/14 04:19:38;;;;;;;0.85;0.85;;;0.40;99.90;;;;;;5014941;28;21220;-78
2022/02/14 04:22:03;;;;;;;0.80;0.80;;;0.40;99.90;;;;;;5013956;28;20190;-77
2022/02/14 04:24:29;;;;;;;1.65;1.33;;;0.50;99.90;;;;;;4997827;28;20582;-77
2022/02/14 04:26:55;;;;;;;0.60;0.60;;;0.50;99.90;;;;;;5012499;28;20230;-77
2022/02/14 04:29:21;;;;;;;8.57;2.33;;;0.50;99.90;;;;;;5013338;28;20210;-75
2022/02/14 04:31:46;;;;;;;1.10;0.73;;;0.50;99.90;;;;;;5013310;28;20237;-77
2022/02/14 04:34:14;;;;;;;1.63;1.05;;;0.40;99.90;;;;;;5010797;28;20298;-75
2022/02/14 04:36:39;;;;;;;0.77;0.77;;;0.50;99.90;;;;;;5012580;28;20206;-77
2022/02/14 04:39:05;;;;;;;1.05;1.05;;;0.40;99.90;;;;;;5013230;28;20222;-75
2022/02/14 04:41:31;;;;;;;0.85;0.85;;;0.40;99.90;;;;;;5013135;28;20206;-77
2022/02/14 04:43:57;;;;;;;0.80;0.80;;;0.40;99.90;;;;;;5011782;28;20209;-77
2022/02/14 04:46:22;;;;;;;0.85;0.85;;;0.40;99.90;;;;;;5005676;28;20207;-79
2022/02/14 04:48:48;;;;;;;0.50;0.50;;;0.50;99.90;;;;;;5016707;28;20253;-76
2022/02/14 04:51:14;;;;;;;0.63;0.63;;;0.40;99.90;;;;;;5011334;28;20206;-78
2022/02/14 04:53:39;;;;;;;0.80;0.80;;;0.40;99.90;;;;;;5012659;28;20234;-77
2022/02/14 04:56:05;;;;;;;0.95;0.95;;;0.40;99.90;;;;;;5011303;28;20198;-78
2022/02/14 04:58:31;;;;;;;1.05;1.00;;;0.40;99.90;;;;;;5010146;28;20282;-80
2022/02/14 05:00:56;;;;;;;1.10;1.00;;;0.40;99.90;;;;;;4997495;28;20200;-79
2022/02/14 05:03:22;;;;;;;0.65;0.65;;;0.40;99.90;;;;;;5014212;28;20225;-80
2022/02/14 05:05:48;;;;;;;0.70;0.70;;;0.40;99.90;;;;;;5012204;28;20203;-77
2022/02/14 05:08:14;;;;;;;0.65;0.65;;;0.40;99.90;;;;;;5012796;28;20199;-79
2022/02/14 05:10:39;;;;;;;1.00;1.00;;;0.40;99.90;;;;;;5007289;28;20299;-78
2022/02/14 05:13:05;;;;;;;0.80;0.80;;;0.40;99.90;;;;;;5023936;28;20252;-77
2022/02/14 05:15:31;;;;;;;0.77;0.77;;;0.40;99.90;;;;;;5011906;28;20211;-77
2022/02/14 05:17:56;;;;;;;0.70;0.70;;;0.40;99.90;;;;;;5012789;28;20199;-78
2022/02/14 05:20:22;;;;;;;1.02;1.02;;;0.40;99.90;;;;;;5012485;28;20241;-77
2022/02/14 05:22:48;;;;;;;0.60;0.60;;;0.40;99.90;;;;;;5012633;28;20198;-78
2022/02/14 05:25:14;;;;;;;0.55;0.55;;;0.40;99.90;;;;;;5011075;28;20211;-77
2022/02/14 05:27:40;;;;;;;0.70;0.70;;;0.40;99.90;;;;;;5011944;28;20210;-79
2022/02/14 05:30:06;;;;;;;0.70;0.70;;;0.40;99.90;;;;;;5012439;28;20338;-77
2022/02/14 05:32:34;;;;;;;0.93;0.93;;;0.40;99.90;;;;;;5011455;28;20194;-79
2022/02/14 05:35:03;;;;;;;1.00;1.00;;;0.40;99.90;;;;;;5010149;28;20210;-78
2022/02/14 05:37:28;;;;;;;0.98;0.98;;;0.40;99.90;;;;;;5011366;28;20206;-78
2022/02/14 05:39:54;;;;;;;1.58;0.95;;;0.40;99.90;;;;;;5013081;28;20200;-78
2022/02/14 05:42:20;;;;;;;0.90;0.90;;;0.40;99.90;;;;;;5013599;28;20210;-80
2022/02/14 05:44:46;;;;;;;0.60;0.60;;;0.40;99.90;;;;;;5013914;28;20566;-80
2022/02/14 05:47:11;;;;;;;0.70;0.70;;;0.40;99.90;;;;;;5015159;28;20676;-79
2022/02/14 05:49:37;;;;;;;0.70;0.70;;;0.40;99.90;;;;;;5015737;28;20210;-78
2022/02/14 05:52:04;;;;;;;2.90;1.23;;;0.40;99.90;;;;;;5023078;28;20186;-80
2022/02/14 05:54:30;;;;;;;0.63;0.63;;;0.40;99.90;;;;;;5030855;28;20213;-79
2022/02/14 05:56:57;;;;;;;0.77;0.77;;;0.40;99.90;;;;;;5016120;28;20206;-77
2022/02/14 05:59:23;;;;;;;0.60;0.60;;;0.40;99.90;;;;;;5030253;28;20677;-78
2022/02/14 06:01:49;;;;;;;0.70;0.70;;;0.40;99.90;;;;;;5031268;28;20252;-80
2022/02/14 06:04:15;;;;;;;0.63;0.63;;;0.40;99.90;;;;;;5030834;28;20206;-77
2022/02/14 06:06:43;;;;;;;1.00;0.98;;;0.40;99.90;;;;;;5014242;28;20209;-77
2022/02/14 06:09:11;;;;;;;0.60;0.60;;;0.40;99.90;;;;;;5020759;28;20265;-79
2022/02/14 06:11:37;;;;;;;0.60;0.60;;;0.40;99.90;;;;;;5017493;28;20211;-80
2022/02/14 06:14:03;;;;;;;0.80;0.80;;;0.40;99.90;;;;;;5016241;28;20222;-79
2022/02/14 06:16:28;;;;;;;0.80;0.80;;;0.40;99.90;;;;;;5016791;28;20283;-77
2022/02/14 06:18:54;;;;;;;0.52;0.52;;;0.40;99.90;;;;;;5016718;28;20194;-76
2022/02/14 06:21:20;;;;;;;0.50;0.50;;;0.40;99.90;;;;;;5018866;28;20199;-78
2022/02/14 06:23:45;;;;;;;0.70;0.70;;;0.40;99.90;;;;;;5019143;28;20195;-78
2022/02/14 06:26:11;;;;;;;0.70;0.70;;;0.40;99.90;;;;;;5017283;28;20210;-79
2022/02/14 06:28:38;;;;;;;0.80;0.80;;;0.40;99.90;;;;;;5017230;28;20218;-79
2022/02/14 06:31:09;;;;;;;0.80;0.80;;;0.40;99.90;;;;;;5017247;28;20667;-78
2022/02/14 06:33:36;;;;;;;0.57;0.57;;;0.40;99.90;;;;;;5018091;28;20272;-78
2022/02/14 06:36:05;;;;;;;0.70;0.70;;;0.40;99.90;;;;;;5016196;28;20191;-78
2022/02/14 06:38:32;;;;;;;0.80;0.80;;;0.40;99.90;;;;;;5016715;28;20710;-78
2022/02/14 06:40:57;;;;;;;0.70;0.70;;;0.30;99.90;;;;;;5017895;28;20202;-78
2022/02/14 06:43:23;;;;;;;0.82;0.82;;;0.40;99.90;;;;;;5016697;28;20206;-80
2022/02/14 06:45:50;;;;;;;0.88;0.88;;;0.30;99.90;;;;;;5017055;28;20202;-79
2022/02/14 06:48:16;;;;;;;0.52;0.52;;;0.30;99.90;;;;;;5017878;28;20309;-79
2022/02/14 06:50:41;;;;;;;0.70;0.70;;;0.40;99.90;;;;;;5017635;28;20209;-78
2022/02/14 06:53:07;;;;;;;0.70;0.70;;;0.40;99.90;;;;;;5018003;28;20195;-79
2022/02/14 06:55:33;;;;;;;0.63;0.63;;;0.40;99.90;;;;;;5016550;28;20582;-78
2022/02/14 06:57:58;;;;;;;1.00;1.00;;;0.40;99.90;;;;;;5017482;28;20212;-79
2022/02/14 07:00:25;;;;;;;2.97;1.85;;;0.40;99.90;;;;;;5016974;28;20606;-78
2022/02/14 07:02:51;;;;;;;1.27;1.15;;;0.40;99.90;;;;;;5028863;28;20195;-78
2022/02/14 07:05:21;;;;;;;0.60;0.60;;;0.40;99.90;;;;;;5016365;28;20294;-79
2022/02/14 07:07:48;;;;;;;0.95;0.95;;;0.40;99.90;;;;;;5000119;28;20234;-78
2022/02/14 07:10:14;;;;;;;0.60;0.60;;;0.40;99.90;;;;;;5015603;28;20218;-79
2022/02/14 07:12:40;;;;;;;0.50;0.50;;;0.40;99.90;;;;;;5013760;28;20207;-78
2022/02/14 07:15:06;;;;;;;0.82;0.82;;;0.40;99.90;;;;;;5017374;28;20249;-77
2022/02/14 07:17:32;;;;;;;1.00;1.00;;;0.50;99.90;;;;;;5015162;28;20202;-78
2022/02/14 07:19:59;;;;;;;0.50;0.50;;;0.40;99.90;;;;;;5015452;28;20195;-78
2022/02/14 07:22:25;;;;;;;0.85;0.85;;;0.40;99.90;;;;;;5012091;28;20203;-78
2022/02/14 07:24:50;;;;;;;0.60;0.60;;;0.50;99.90;;;;;;5021892;28;20214;-79
2022/02/14 07:27:16;;;;;;;0.55;0.55;;;0.50;99.90;;;;;;5033849;28;20202;-79
2022/02/14 07:29:42;;;;;;;0.60;0.60;;;0.50;99.90;;;;;;5015102;28;20230;-79
2022/02/14 07:32:08;;;;;;;0.70;0.70;;;0.50;99.90;;;;;;5016150;28;20229;-78
2022/02/14 07:34:34;;;;;;;0.60;0.60;;;0.50;99.90;;;;;;5015952;28;20234;-77
2022/02/14 07:37:02;;;;;;;1.80;1.17;;;0.50;99.90;;;;;;5016672;28;20274;-80
2022/02/14 07:39:32;;;;;;;0.60;0.60;;;0.50;99.90;;;;;;5016913;28;20202;-79
2022/02/14 07:41:58;;;;;;;0.50;0.50;;;0.50;99.90;;;;;;5015533;28;20199;-79
2022/02/14 07:44:24;;;;;;;0.70;0.70;;;0.50;99.90;;;;;;5026216;28;20202;-80
2022/02/14 07:46:51;;;;;;;0.75;0.73;;;0.50;99.90;;;;;;5017132;28;20573;-78
2022/02/14 07:49:21;;;;;;;0.50;0.50;;;0.50;99.90;;;;;;5016882;28;20215;-79
2022/02/14 07:51:47;;;;;;;0.60;0.60;;;0.50;99.90;;;;;;5017105;28;20206;-78
2022/02/14 07:54:13;;;;;;;0.60;0.60;;;0.50;99.90;;;;;;5016464;28;20555;-80
2022/02/14 07:56:39;;;;;;;0.70;0.70;;;0.60;99.90;;;;;;5015403;28;20202;-79
2022/02/14 07:59:06;;;;;;;0.60;0.60;;;0.50;99.90;;;;;;5016441;28;20223;-79
2022/02/14 08:01:31;;;;;;;0.60;0.60;;;0.60;99.90;;;;;;5016023;28;20202;-78
2022/02/14 08:03:57;;;;;;;0.70;0.70;;;0.60;99.90;;;;;;5016892;28;20203;-79
2022/02/14 08:06:23;;;;;;;0.60;0.60;;;0.60;99.90;;;;;;5015157;28;20207;-80
2022/02/14 08:08:50;;;;;;;0.60;0.60;;;0.70;99.90;;;;;;5016957;28;20206;-79
2022/02/14 08:11:17;;;;;;;0.65;0.65;;;0.70;99.90;;;;;;5007308;28;20211;-80
2022/02/14 08:13:43;;;;;;;0.73;0.73;;;0.70;99.90;;;;;;5013867;28;20206;-79
2022/02/14 08:16:09;;;;;;;1.00;0.95;;;0.70;99.90;;;;;;5015658;28;20210;-79
2022/02/14 08:18:37;;;;;;;0.70;0.70;;;0.70;99.90;;;;;;5015333;28;20566;-80
2022/02/14 08:21:08;;;;;;;0.60;0.60;;;0.70;99.90;;;;;;5016081;28;20195;-80
2022/02/14 08:23:37;;;;;;;0.60;0.60;;;0.70;99.90;;;;;;5015947;28;20281;-80
2022/02/14 08:26:05;;;;;;;0.80;0.80;;;0.70;99.90;;;;;;5015659;28;20187;-79
2022/02/14 08:28:40;;;;;;;0.80;0.80;;;0.80;99.90;;;;;;5016683;28;20555;-80
2022/02/14 08:31:15;;;;;;;1.63;1.50;;;0.80;99.90;;;;;;5016913;28;20190;-80
2022/02/14 08:33:45;;;;;;;1.00;1.00;;;0.80;99.90;;;;;;5015206;28;20202;-78
2022/02/14 08:36:11;;;;;;;0.60;0.60;;;0.80;99.90;;;;;;5015717;28;20222;-78
2022/02/14 08:38:37;;;;;;;0.77;0.77;;;0.80;99.90;;;;;;5016668;28;20278;-81
2022/02/14 08:41:06;;;;;;;0.70;0.70;;;0.80;99.90;;;;;;5014420;28;20798;-80
2022/02/14 08:43:32;;;;;;;0.85;0.85;;;0.90;99.90;;;;;;5014478;28;20199;-78
2022/02/14 08:45:59;;;;;;;0.60;0.60;;;0.90;99.90;;;;;;5014508;28;20578;-80
2022/02/14 08:48:27;;;;;;;0.60;0.60;;;0.90;99.90;;;;;;5012459;28;20755;-81
2022/02/14 08:50:56;;;;;;;1.13;1.02;;;1.00;99.90;;;;;;5015251;28;20203;-77
2022/02/14 08:53:23;;;;;;;0.70;0.70;;;1.00;99.90;;;;;;5014147;28;20252;-79
2022/02/14 08:55:49;;;;;;;0.60;0.60;;;1.00;99.90;;;;;;5030591;28;20209;-79
2022/02/14 08:58:17;;;;;;;0.60;0.60;;;1.00;99.90;;;;;;5014557;28;20213;-78
2022/02/14 09:00:43;;;;;;;0.75;0.75;;;1.00;99.90;;;;;;5014356;28;20293;-78
2022/02/14 09:03:08;;;;;;;0.80;0.80;;;1.00;99.90;;;;;;5012595;28;20238;-79
2022/02/14 09:05:34;;;;;;;0.70;0.70;;;1.00;99.90;;;;;;5012163;28;20210;-79
2022/02/14 09:08:00;;;;;;;0.70;0.70;;;1.00;99.90;;;;;;5012577;28;20222;-81
2022/02/14 09:10:26;;;;;;;0.70;0.70;;;1.10;99.90;;;;;;5012827;28;20211;-77
2022/02/14 09:12:51;;;;;;;0.60;0.60;;;1.10;99.90;;;;;;5010221;28;20202;-79
2022/02/14 09:15:17;;;;;;;1.25;1.05;;;1.10;99.90;;;;;;5012314;28;20250;-78
2022/02/14 09:17:43;;;;;;;0.60;0.60;;;1.10;99.90;;;;;;5013309;28;20286;-79
2022/02/14 09:20:10;;;;;;;0.98;0.98;;;1.20;99.90;;;;;;5013871;28;20598;-76
2022/02/14 09:22:37;;;;;;;0.60;0.60;;;1.20;99.90;;;;;;5012596;28;20572;-80
2022/02/14 09:25:03;;;;;;;0.65;0.65;;;1.20;99.90;;;;;;5011641;28;20218;-77
2022/02/14 09:27:29;;;;;;;0.68;0.68;;;1.20;99.90;;;;;;5004113;28;20621;-78
2022/02/14 09:29:55;;;;;;;0.98;0.98;;;1.20;99.90;;;;;;5013767;28;20248;-78
2022/02/14 09:32:22;;;;;;;0.80;0.80;;;1.20;99.90;;;;;;5011054;28;20217;-79
2022/02/14 09:34:48;;;;;;;0.50;0.50;;;1.30;99.90;;;;;;5012162;28;20298;-78
2022/02/14 09:37:15;;;;;;;0.70;0.70;;;1.30;99.90;;;;;;5014902;28;20246;-78
2022/02/14 09:39:41;;;;;;;1.00;0.98;;;1.30;99.90;;;;;;5012041;28;20655;-77
2022/02/14 09:42:08;;;;;;;0.60;0.60;;;1.30;99.90;;;;;;5005004;28;20214;-79
2022/02/14 09:44:35;;;;;;;0.60;0.60;;;1.30;99.90;;;;;;5017961;28;20233;-78
2022/02/14 09:47:04;;;;;;;0.68;0.68;;;1.20;99.90;;;;;;5029126;28;20198;-79
2022/02/14 09:49:31;;;;;;;0.63;0.63;;;1.20;99.90;;;;;;5027671;28;20761;-78
2022/02/14 09:51:56;;;;;;;0.98;0.98;;;1.20;99.90;;;;;;5011374;28;20292;-78
2022/02/14 09:54:24;;;;;;;1.20;1.10;;;1.20;99.90;;;;;;5012063;28;20245;-79
2022/02/14 09:56:50;;;;;;;0.60;0.60;;;1.20;99.90;;;;;;5011466;28;20191;-78
2022/02/14 09:59:17;;;;;;;0.80;0.80;;;1.20;99.90;;;;;;5011229;28;20568;-78
2022/02/14 10:01:44;;;;;;;8.02;3.13;;;1.20;99.90;;;;;;5023913;28;20209;-79
2022/02/14 10:04:10;;;;;;;0.60;0.60;;;1.20;99.90;;;;;;5008943;28;20657;-79
2022/02/14 10:06:46;;;;;;;0.70;0.70;;;1.30;99.90;;;;;;5027149;28;20250;-78
2022/02/14 10:09:19;;;;;;;0.70;0.70;;;1.30;99.90;;;;;;5011789;28;20543;-79
2022/02/14 10:12:05;;;;;;;0.88;0.88;;;1.40;99.90;;;;;;5010274;28;20226;-77
2022/02/14 10:14:36;;;;;;;0.60;0.60;;;1.40;99.90;;;;;;5010833;28;20213;-77
2022/02/14 10:17:13;;;;;;;0.60;0.60;;;1.50;99.90;;;;;;5005685;28;20210;-76
2022/02/14 10:19:53;;;;;;;0.60;0.60;;;1.50;99.90;;;;;;5018654;28;20198;-77
2022/02/14 10:22:19;;;;;;;0.60;0.60;;;1.50;99.90;;;;;;5010852;28;20268;-79
2022/02/14 10:24:46;;;;;;;0.60;0.60;;;1.50;99.90;;;;;;5020626;28;20202;-78
2022/02/14 10:27:13;;;;;;;0.70;0.70;;;1.60;99.90;;;;;;5027329;28;20217;-77
2022/02/14 10:29:41;;;;;;;0.70;0.70;;;1.60;99.90;;;;;;5012529;28;21349;-77
2022/02/14 10:32:17;;;;;;;0.63;0.50;;;1.60;99.90;;;;;;5006177;28;20211;-77
2022/02/14 10:34:48;;;;;;;1.67;1.52;;;1.60;99.90;;;;;;5011209;28;20206;-76
2022/02/14 10:37:16;;;;;;;0.73;0.73;;;1.60;99.90;;;;;;5010898;28;20203;-77
2022/02/14 10:39:43;;;;;;;0.60;0.60;;;1.60;99.90;;;;;;5011564;28;20203;-77
2022/02/14 10:42:09;;;;;;;0.60;0.60;;;1.60;99.90;;;;;;5011859;28;20203;-77
2022/02/14 10:47:30;;;;;;;8.32;1.30;;;1.60;99.90;;;;;;5012335;28;20278;-79
2022/02/14 10:50:06;;;;;;;0.70;0.70;;;1.60;99.90;;;;;;5013085;28;20247;-77
2022/02/14 10:52:49;;;;;;;0.65;0.65;;;1.50;99.90;;;;;;5014088;28;20286;-77
2022/02/14 10:55:20;;;;;;;0.70;0.70;;;1.50;99.90;;;;;;5015133;28;20242;-77
2022/02/14 10:57:50;;;;;;;0.75;0.75;;;1.50;99.90;;;;;;5015083;28;20222;-75
2022/02/14 11:00:18;;;;;;;0.70;0.70;;;1.50;99.90;;;;;;5016579;28;20530;-75
2022/02/14 11:02:46;;;;;;;1.10;1.05;;;1.50;99.90;;;;;;5014239;28;20203;-76
2022/02/14 11:05:14;;;;;;;0.70;0.70;;;1.40;99.90;;;;;;5014752;28;20203;-76
2022/02/14 11:07:42;;;;;;;0.60;0.60;;;1.40;99.90;;;;;;5014191;28;20218;-75
2022/02/14 11:10:12;;;;;;;0.70;0.70;;;1.50;99.90;;;;;;5012138;28;20234;-73
2022/02/14 11:12:41;;;;;;;0.70;0.70;;;1.50;99.90;;;;;;5012006;28;20349;-75
2022/02/14 11:15:09;;;;;;;0.45;0.45;;;1.50;99.90;;;;;;5013002;28;20673;-76
2022/02/14 11:17:43;;;;;;;0.63;0.63;;;1.50;99.90;;;;;;5012987;28;20211;-77
2022/02/14 11:20:09;;;;;;;0.70;0.70;;;1.40;99.90;;;;;;5012596;28;20670;-75
2022/02/14 11:22:41;;;;;;;0.60;0.60;;;1.40;99.90;;;;;;5016300;28;20206;-76
2022/02/14 11:25:19;;;;;;;0.60;0.60;;;1.40;99.90;;;;;;5015993;28;20198;-76
2022/02/14 11:28:12;;;;;;;0.77;0.77;;;1.40;99.90;;;;;;5015608;28;20210;-76
2022/02/14 11:30:38;;;;;;;0.90;0.88;;;1.40;99.90;;;;;;4975017;28;20216;-76
2022/02/14 11:33:10;;;;;;;0.50;0.50;;;1.40;99.90;;;;;;5008152;28;20241;-76
2022/02/14 11:35:37;;;;;;;2.42;1.27;;;1.40;99.90;;;;;;5011334;28;20231;-77
2022/02/14 11:38:04;;;;;;;0.68;0.68;;;1.40;99.90;;;;;;5010420;28;20229;-74
2022/02/14 11:40:45;;;;;;;0.57;0.57;;;1.40;99.90;;;;;;5012804;28;20345;-75
2022/02/14 11:43:25;;;;;;;1.60;1.23;;;1.40;99.90;;;;;;5012316;28;20249;-75
2022/02/14 11:46:26;;;;;;;0.80;0.80;;;1.30;99.90;;;;;;5012445;28;20265;-75
2022/02/14 11:49:13;;;;;;;0.60;0.60;;;1.40;99.90;;;;;;4991053;28;20230;-75
2022/02/14 11:51:55;;;;;;;0.70;0.70;;;1.40;99.90;;;;;;5011654;28;20207;-74
2022/02/14 11:54:45;;;;;;;0.70;0.70;;;1.40;99.90;;;;;;5013194;28;20321;-76
2022/02/14 11:57:16;;;;;;;0.60;0.60;;;1.40;99.90;;;;;;5028713;28;20202;-75
2022/02/14 11:59:46;;;;;;;0.60;0.60;;;1.30;99.90;;;;;;5028843;28;20561;-76
2022/02/14 12:02:13;;;;;;;0.50;0.50;;;1.40;99.90;;;;;;5009315;28;20254;-76
2022/02/14 12:04:44;;;;;;;0.68;0.68;;;1.30;99.90;;;;;;5013502;28;20211;-75
2022/02/14 12:07:34;;;;;;;0.70;0.70;;;1.40;99.90;;;;;;5014742;28;20285;-75
2022/02/14 12:09:59;;;;;;;0.60;0.60;;;1.40;99.90;;;;;;5010918;28;20204;-76
2022/02/14 12:12:44;;;;;;;0.60;0.60;;;1.40;99.90;;;;;;5012492;28;20572;-79
2022/02/14 12:20:47;;;;;;;0.60;0.60;;;1.30;99.90;;;;;;5012565;28;20214;-76
2022/02/14 12:23:14;;;;;;;0.63;0.63;;;1.30;99.90;;;;;;5011952;28;20202;-75
2022/02/14 12:25:51;;;;;;;0.60;0.60;;;1.30;99.90;;;;;;5016183;28;20211;-75
2022/02/14 12:28:19;;;;;;;1.30;1.05;;;1.30;99.90;;;;;;5012090;28;20194;-76
2022/02/14 12:30:46;;;;;;;0.52;0.52;;;1.30;99.90;;;;;;5012070;28;20206;-76
2022/02/14 12:33:13;;;;;;;0.70;0.70;;;1.30;99.90;;;;;;5011421;28;20203;-76
2022/02/14 12:35:40;;;;;;;0.80;0.80;;;1.30;99.90;;;;;;5011791;28;20225;-75
2022/02/14 12:38:06;;;;;;;0.60;0.60;;;1.30;99.90;;;;;;5010354;28;20233;-76
2022/02/14 12:40:54;;;;;;;0.50;0.50;;;1.30;99.90;;;;;;5011624;28;20227;-78
2022/02/14 12:43:26;;;;;;;0.63;0.63;;;1.30;99.90;;;;;;5013151;28;20575;-77
2022/02/14 12:45:57;;;;;;;0.65;0.65;;;1.30;99.90;;;;;;5010888;28;20202;-76
2022/02/14 12:48:31;;;;;;;0.60;0.60;;;1.20;99.90;;;;;;5009533;28;20233;-80
2022/02/14 12:50:58;;;;;;;0.93;0.93;;;1.30;99.90;;;;;;5028483;28;20207;-77
2022/02/14 12:53:24;;;;;;;0.77;0.77;;;1.20;99.90;;;;;;5011709;28;20214;-76
2022/02/14 12:55:49;;;;;;;0.57;0.57;;;1.30;99.90;;;;;;5012384;28;20302;-77
2022/02/14 12:58:16;;;;;;;0.70;0.70;;;1.30;99.90;;;;;;5011900;28;20210;-75
2022/02/14 13:00:43;;;;;;;0.60;0.60;;;1.30;99.90;;;;;;5010367;28;20226;-77
2022/02/14 13:03:11;;;;;;;0.63;0.63;;;1.30;99.90;;;;;;5011855;28;20198;-77
2022/02/14 13:05:38;;;;;;;0.65;0.65;;;1.30;99.90;;;;;;5012836;28;20675;-77
2022/02/14 13:08:23;;;;;;;0.70;0.70;;;1.30;99.90;;;;;;5001159;28;20207;-74
2022/02/14 13:10:52;;;;;;;0.60;0.60;;;1.30;99.90;;;;;;5009744;28;20795;-77
2022/02/14 13:13:31;;;;;;;0.60;0.60;;;1.30;99.90;;;;;;5010479;28;20206;-77